sensor_id;sensor_type;location;lat;lon;timestamp;temperature;humidity
3564;DHT22;1796;52.388;13.096;2023-12-20T00:01:35;6.40;99.90
3564;DHT22;1796;52.388;13.096;2023-12-20T00:04:03;6.30;99.90
3564;DHT22;1796;52.388;13.096;2023-12-20T00:06:30;6.30;99.90
3564;DHT22;1796;52.388;13.096;2023-12-20T00:08:57;6.30;99.90
3564;DHT22;1796;52.388;13.096;2023-12-20T00:11:24;6.30;99.90
3564;DHT22;1796;52.388;13.096;2023-12-20T00:13:51;6.40;99.90
3564;DHT22;1796;52.388;13.096;2023-12-20T00:16:18;6.30;99.90
3564;DHT22;1796;52.388;13.096;2023-12-20T00:18:45;6.40;99.90
3564;DHT22;1796;52.388;13.096;2023-12-20T00:21:13;6.30;99.90
3564;DHT22;1796;52.388;13.096;2023-12-20T00:23:40;6.30;99.90
3564;DHT22;1796;52.388;13.096;2023-12-20T00:26:07;6.30;99.90
3564;DHT22;1796;52.388;13.096;2023-12-20T00:28:34;6.30;99.90
3564;DHT22;1796;52.388;13.096;2023-12-20T00:31:01;6.30;99.90
3564;DHT22;1796;52.388;13.096;2023-12-20T00:33:28;6.30;99.90
3564;DHT22;1796;52.388;13.096;2023-12-20T00:35:55;6.30;99.90
3564;DHT22;1796;52.388;13.096;2023-12-20T00:38:23;6.30;99.90
3564;DHT22;1796;52.388;13.096;2023-12-20T00:40:50;6.30;99.90
3564;DHT22;1796;52.388;13.096;2023-12-20T00:43:17;6.30;99.90
3564;DHT22;1796;52.388;13.096;2023-12-20T00:48:18;6.30;99.90
3564;DHT22;1796;52.388;13.096;2023-12-20T00:50:44;6.30;99.90
3564;DHT22;1796;52.388;13.096;2023-12-20T00:53:11;6.30;99.90
3564;DHT22;1796;52.388;13.096;2023-12-20T00:55:40;6.30;99.90
3564;DHT22;1796;52.388;13.096;2023-12-20T00:58:07;6.20;99.90
3564;DHT22;1796;52.388;13.096;2023-12-20T01:00:34;6.30;99.90
3564;DHT22;1796;52.388;13.096;2023-12-20T01:03:02;6.40;99.90
3564;DHT22;1796;52.388;13.096;2023-12-20T01:05:29;6.30;99.90
3564;DHT22;1796;52.388;13.096;2023-12-20T01:07:56;6.30;99.90
3564;DHT22;1796;52.388;13.096;2023-12-20T01:10:22;6.40;99.90
3564;DHT22;1796;52.388;13.096;2023-12-20T01:12:51;6.30;99.90
3564;DHT22;1796;52.388;13.096;2023-12-20T01:15:17;6.30;99.90
3564;DHT22;1796;52.388;13.096;2023-12-20T01:17:44;6.30;99.90
3564;DHT22;1796;52.388;13.096;2023-12-20T01:20:11;6.30;99.90
3564;DHT22;1796;52.388;13.096;2023-12-20T01:22:38;6.30;99.90
3564;DHT22;1796;52.388;13.096;2023-12-20T01:25:06;6.30;99.90
3564;DHT22;1796;52.388;13.096;2023-12-20T01:27:33;6.30;99.90
3564;DHT22;1796;52.388;13.096;2023-12-20T01:30:01;6.30;99.90
3564;DHT22;1796;52.388;13.096;2023-12-20T01:32:28;6.40;99.90
3564;DHT22;1796;52.388;13.096;2023-12-20T01:34:55;6.40;99.90
3564;DHT22;1796;52.388;13.096;2023-12-20T01:37:22;6.30;99.90
3564;DHT22;1796;52.388;13.096;2023-12-20T01:39:51;6.30;99.90
3564;DHT22;1796;52.388;13.096;2023-12-20T01:42:18;6.30;99.90
3564;DHT22;1796;52.388;13.096;2023-12-20T01:44:45;6.40;99.90
3564;DHT22;1796;52.388;13.096;2023-12-20T01:47:13;6.40;99.90
3564;DHT22;1796;52.388;13.096;2023-12-20T01:49:40;6.40;99.90
3564;DHT22;1796;52.388;13.096;2023-12-20T01:52:08;6.40;99.90
3564;DHT22;1796;52.388;13.096;2023-12-20T01:54:37;6.40;99.90
3564;DHT22;1796;52.388;13.096;2023-12-20T01:57:06;6.40;99.90
3564;DHT22;1796;52.388;13.096;2023-12-20T01:59:34;6.40;99.90
3564;DHT22;1796;52.388;13.096;2023-12-20T02:02:03;6.40;99.90
3564;DHT22;1796;52.388;13.096;2023-12-20T02:04:31;6.40;99.90
3564;DHT22;1796;52.388;13.096;2023-12-20T02:06:59;6.50;99.90
3564;DHT22;1796;52.388;13.096;2023-12-20T02:09:26;6.50;99.90
3564;DHT22;1796;52.388;13.096;2023-12-20T02:11:54;6.60;99.90
3564;DHT22;1796;52.388;13.096;2023-12-20T02:14:21;6.50;99.90
3564;DHT22;1796;52.388;13.096;2023-12-20T02:16:48;6.50;99.90
3564;DHT22;1796;52.388;13.096;2023-12-20T02:19:15;6.50;99.90
3564;DHT22;1796;52.388;13.096;2023-12-20T02:21:45;6.50;99.90
3564;DHT22;1796;52.388;13.096;2023-12-20T02:24:12;6.50;99.90
3564;DHT22;1796;52.388;13.096;2023-12-20T02:26:39;6.50;99.90
3564;DHT22;1796;52.388;13.096;2023-12-20T02:29:06;6.50;99.90
3564;DHT22;1796;52.388;13.096;2023-12-20T02:31:33;6.50;99.90
3564;DHT22;1796;52.388;13.096;2023-12-20T02:34:00;6.50;99.90
3564;DHT22;1796;52.388;13.096;2023-12-20T02:36:27;6.50;99.90
3564;DHT22;1796;52.388;13.096;2023-12-20T02:38:55;6.50;99.90
3564;DHT22;1796;52.388;13.096;2023-12-20T02:41:22;6.50;99.90
3564;DHT22;1796;52.388;13.096;2023-12-20T02:43:49;6.50;99.90
3564;DHT22;1796;52.388;13.096;2023-12-20T02:46:16;6.50;99.90
3564;DHT22;1796;52.388;13.096;2023-12-20T02:48:43;6.50;99.90
3564;DHT22;1796;52.388;13.096;2023-12-20T02:51:10;6.50;99.90
3564;DHT22;1796;52.388;13.096;2023-12-20T02:53:37;6.50;99.90
3564;DHT22;1796;52.388;13.096;2023-12-20T02:56:06;6.50;99.90
3564;DHT22;1796;52.388;13.096;2023-12-20T02:58:33;6.40;99.90
3564;DHT22;1796;52.388;13.096;2023-12-20T03:01:00;6.50;99.90
3564;DHT22;1796;52.388;13.096;2023-12-20T03:03:26;6.40;99.90
3564;DHT22;1796;52.388;13.096;2023-12-20T03:05:53;6.50;99.90
3564;DHT22;1796;52.388;13.096;2023-12-20T03:08:20;6.50;99.90
3564;DHT22;1796;52.388;13.096;2023-12-20T03:10:47;6.40;99.90
3564;DHT22;1796;52.388;13.096;2023-12-20T03:13:15;6.50;99.90
3564;DHT22;1796;52.388;13.096;2023-12-20T03:15:42;6.50;99.90
3564;DHT22;1796;52.388;13.096;2023-12-20T03:18:09;6.40;99.90
3564;DHT22;1796;52.388;13.096;2023-12-20T03:20:36;6.40;99.90
3564;DHT22;1796;52.388;13.096;2023-12-20T03:23:03;6.40;99.90
3564;DHT22;1796;52.388;13.096;2023-12-20T03:25:30;6.40;99.90
3564;DHT22;1796;52.388;13.096;2023-12-20T03:27:56;6.40;99.90
3564;DHT22;1796;52.388;13.096;2023-12-20T03:30:25;6.40;99.90
3564;DHT22;1796;52.388;13.096;2023-12-20T03:32:51;6.50;99.90
3564;DHT22;1796;52.388;13.096;2023-12-20T03:35:18;6.40;99.90
3564;DHT22;1796;52.388;13.096;2023-12-20T03:37:45;6.40;99.90
3564;DHT22;1796;52.388;13.096;2023-12-20T03:40:12;6.40;99.90
3564;DHT22;1796;52.388;13.096;2023-12-20T03:42:39;6.40;99.90
3564;DHT22;1796;52.388;13.096;2023-12-20T03:45:07;6.50;99.90
3564;DHT22;1796;52.388;13.096;2023-12-20T03:47:35;6.40;99.90
3564;DHT22;1796;52.388;13.096;2023-12-20T03:50:02;6.40;99.90
3564;DHT22;1796;52.388;13.096;2023-12-20T03:52:29;6.40;99.90
3564;DHT22;1796;52.388;13.096;2023-12-20T03:54:56;6.30;99.90
3564;DHT22;1796;52.388;13.096;2023-12-20T03:57:22;6.30;99.90
3564;DHT22;1796;52.388;13.096;2023-12-20T03:59:49;6.30;99.90
3564;DHT22;1796;52.388;13.096;2023-12-20T04:02:16;6.20;99.90
3564;DHT22;1796;52.388;13.096;2023-12-20T04:04:45;6.10;99.90
3564;DHT22;1796;52.388;13.096;2023-12-20T04:07:12;6.10;99.90
3564;DHT22;1796;52.388;13.096;2023-12-20T04:09:40;6.10;99.90
3564;DHT22;1796;52.388;13.096;2023-12-20T04:12:07;6.10;99.90
3564;DHT22;1796;52.388;13.096;2023-12-20T04:14:34;6.00;99.90
3564;DHT22;1796;52.388;13.096;2023-12-20T04:17:01;5.90;99.90
3564;DHT22;1796;52.388;13.096;2023-12-20T04:19:28;5.90;99.90
3564;DHT22;1796;52.388;13.096;2023-12-20T04:21:56;5.80;99.90
3564;DHT22;1796;52.388;13.096;2023-12-20T04:24:23;5.70;99.90
3564;DHT22;1796;52.388;13.096;2023-12-20T04:26:50;5.70;99.90
3564;DHT22;1796;52.388;13.096;2023-12-20T04:29:17;5.70;99.90
3564;DHT22;1796;52.388;13.096;2023-12-20T04:31:43;5.60;99.90
3564;DHT22;1796;52.388;13.096;2023-12-20T04:34:10;5.50;99.90
3564;DHT22;1796;52.388;13.096;2023-12-20T04:36:37;5.40;99.90
3564;DHT22;1796;52.388;13.096;2023-12-20T04:39:05;5.40;99.90
3564;DHT22;1796;52.388;13.096;2023-12-20T04:41:32;5.40;99.90
3564;DHT22;1796;52.388;13.096;2023-12-20T04:43:59;5.40;99.90
3564;DHT22;1796;52.388;13.096;2023-12-20T04:46:26;5.40;99.90
3564;DHT22;1796;52.388;13.096;2023-12-20T04:48:53;5.20;99.90
3564;DHT22;1796;52.388;13.096;2023-12-20T04:51:20;5.20;99.90
3564;DHT22;1796;52.388;13.096;2023-12-20T04:53:46;5.10;99.90
3564;DHT22;1796;52.388;13.096;2023-12-20T04:56:15;5.00;99.90
3564;DHT22;1796;52.388;13.096;2023-12-20T04:58:42;4.90;99.90
3564;DHT22;1796;52.388;13.096;2023-12-20T05:01:09;4.80;99.90
3564;DHT22;1796;52.388;13.096;2023-12-20T05:03:37;4.90;99.90
3564;DHT22;1796;52.388;13.096;2023-12-20T05:06:04;4.90;99.90
3564;DHT22;1796;52.388;13.096;2023-12-20T05:08:31;5.00;99.90
3564;DHT22;1796;52.388;13.096;2023-12-20T05:10:57;5.10;99.90
3564;DHT22;1796;52.388;13.096;2023-12-20T05:13:26;5.00;99.90
3564;DHT22;1796;52.388;13.096;2023-12-20T05:15:52;5.00;99.90
3564;DHT22;1796;52.388;13.096;2023-12-20T05:18:20;5.00;99.90
3564;DHT22;1796;52.388;13.096;2023-12-20T05:20:47;4.90;99.90
3564;DHT22;1796;52.388;13.096;2023-12-20T05:23:14;4.90;99.90
3564;DHT22;1796;52.388;13.096;2023-12-20T05:25:41;4.90;99.90
3564;DHT22;1796;52.388;13.096;2023-12-20T05:28:07;4.90;99.90
3564;DHT22;1796;52.388;13.096;2023-12-20T05:30:36;5.00;99.90
3564;DHT22;1796;52.388;13.096;2023-12-20T05:33:02;5.00;99.90
3564;DHT22;1796;52.388;13.096;2023-12-20T05:35:29;4.90;99.90
3564;DHT22;1796;52.388;13.096;2023-12-20T05:37:56;5.00;99.90
3564;DHT22;1796;52.388;13.096;2023-12-20T05:40:23;5.00;99.90
3564;DHT22;1796;52.388;13.096;2023-12-20T05:42:50;5.00;99.90
3564;DHT22;1796;52.388;13.096;2023-12-20T05:45:16;5.00;99.90
3564;DHT22;1796;52.388;13.096;2023-12-20T05:47:45;5.00;99.90
3564;DHT22;1796;52.388;13.096;2023-12-20T05:50:11;5.00;99.90
3564;DHT22;1796;52.388;13.096;2023-12-20T05:52:38;4.90;99.90
3564;DHT22;1796;52.388;13.096;2023-12-20T05:55:06;4.90;99.90
3564;DHT22;1796;52.388;13.096;2023-12-20T05:57:32;4.80;99.90
3564;DHT22;1796;52.388;13.096;2023-12-20T05:59:59;4.70;99.90
3564;DHT22;1796;52.388;13.096;2023-12-20T06:02:26;4.70;99.90
3564;DHT22;1796;52.388;13.096;2023-12-20T06:04:54;4.70;99.90
3564;DHT22;1796;52.388;13.096;2023-12-20T06:07:21;4.60;99.90
3564;DHT22;1796;52.388;13.096;2023-12-20T06:09:48;4.50;99.90
3564;DHT22;1796;52.388;13.096;2023-12-20T06:12:15;4.40;99.90
3564;DHT22;1796;52.388;13.096;2023-12-20T06:14:42;4.30;99.90
3564;DHT22;1796;52.388;13.096;2023-12-20T06:17:08;4.40;99.90
3564;DHT22;1796;52.388;13.096;2023-12-20T06:19:35;4.40;99.90
3564;DHT22;1796;52.388;13.096;2023-12-20T06:22:03;4.40;99.90
3564;DHT22;1796;52.388;13.096;2023-12-20T06:24:30;4.40;99.90
3564;DHT22;1796;52.388;13.096;2023-12-20T06:26:59;4.30;99.90
3564;DHT22;1796;52.388;13.096;2023-12-20T06:29:26;4.40;99.90
3564;DHT22;1796;52.388;13.096;2023-12-20T06:31:53;4.40;99.90
3564;DHT22;1796;52.388;13.096;2023-12-20T06:34:20;4.40;99.90
3564;DHT22;1796;52.388;13.096;2023-12-20T06:36:46;4.40;99.90
3564;DHT22;1796;52.388;13.096;2023-12-20T06:39:15;4.40;99.90
3564;DHT22;1796;52.388;13.096;2023-12-20T06:41:42;4.50;99.90
3564;DHT22;1796;52.388;13.096;2023-12-20T06:44:09;4.40;99.90
3564;DHT22;1796;52.388;13.096;2023-12-20T06:46:36;4.50;99.90
3564;DHT22;1796;52.388;13.096;2023-12-20T06:49:03;4.50;99.90
3564;DHT22;1796;52.388;13.096;2023-12-20T06:51:29;4.60;99.90
3564;DHT22;1796;52.388;13.096;2023-12-20T06:53:56;4.60;99.90
3564;DHT22;1796;52.388;13.096;2023-12-20T06:56:25;4.60;99.90
3564;DHT22;1796;52.388;13.096;2023-12-20T06:58:52;4.50;99.90
3564;DHT22;1796;52.388;13.096;2023-12-20T07:01:18;4.60;99.90
3564;DHT22;1796;52.388;13.096;2023-12-20T07:03:45;4.60;99.90
3564;DHT22;1796;52.388;13.096;2023-12-20T07:06:12;4.60;99.90
3564;DHT22;1796;52.388;13.096;2023-12-20T07:08:41;4.70;99.90
3564;DHT22;1796;52.388;13.096;2023-12-20T07:11:08;4.70;99.90
3564;DHT22;1796;52.388;13.096;2023-12-20T07:13:39;4.80;99.90
3564;DHT22;1796;52.388;13.096;2023-12-20T07:16:06;4.80;99.90
3564;DHT22;1796;52.388;13.096;2023-12-20T07:18:33;4.90;99.90
3564;DHT22;1796;52.388;13.096;2023-12-20T07:21:00;4.80;99.90
3564;DHT22;1796;52.388;13.096;2023-12-20T07:23:27;4.90;99.90
3564;DHT22;1796;52.388;13.096;2023-12-20T07:25:53;4.80;99.90
3564;DHT22;1796;52.388;13.096;2023-12-20T07:28:20;4.80;99.90
3564;DHT22;1796;52.388;13.096;2023-12-20T07:30:48;4.90;99.90
3564;DHT22;1796;52.388;13.096;2023-12-20T07:33:15;4.90;99.90
3564;DHT22;1796;52.388;13.096;2023-12-20T07:35:42;4.90;99.90
3564;DHT22;1796;52.388;13.096;2023-12-20T07:38:10;4.90;99.90
3564;DHT22;1796;52.388;13.096;2023-12-20T07:40:38;4.90;99.90
3564;DHT22;1796;52.388;13.096;2023-12-20T07:43:05;4.90;99.90
3564;DHT22;1796;52.388;13.096;2023-12-20T07:45:32;4.90;99.90
3564;DHT22;1796;52.388;13.096;2023-12-20T07:48:00;5.00;99.90
3564;DHT22;1796;52.388;13.096;2023-12-20T07:50:27;5.00;99.90
3564;DHT22;1796;52.388;13.096;2023-12-20T07:52:54;5.00;99.90
3564;DHT22;1796;52.388;13.096;2023-12-20T07:55:20;5.00;99.90
3564;DHT22;1796;52.388;13.096;2023-12-20T07:57:48;5.00;99.90
3564;DHT22;1796;52.388;13.096;2023-12-20T08:00:15;5.10;99.90
3564;DHT22;1796;52.388;13.096;2023-12-20T08:02:42;5.20;99.90
3564;DHT22;1796;52.388;13.096;2023-12-20T08:05:11;5.20;99.90
3564;DHT22;1796;52.388;13.096;2023-12-20T08:07:39;5.10;99.90
3564;DHT22;1796;52.388;13.096;2023-12-20T08:10:06;5.10;99.90
3564;DHT22;1796;52.388;13.096;2023-12-20T08:12:33;5.10;99.90
3564;DHT22;1796;52.388;13.096;2023-12-20T08:15:00;5.10;99.90
3564;DHT22;1796;52.388;13.096;2023-12-20T08:17:27;5.00;99.90
3564;DHT22;1796;52.388;13.096;2023-12-20T08:19:54;5.00;99.90
3564;DHT22;1796;52.388;13.096;2023-12-20T08:22:22;5.00;99.90
3564;DHT22;1796;52.388;13.096;2023-12-20T08:24:50;5.10;99.90
3564;DHT22;1796;52.388;13.096;2023-12-20T08:27:16;5.10;99.90
3564;DHT22;1796;52.388;13.096;2023-12-20T08:29:44;5.00;99.90
3564;DHT22;1796;52.388;13.096;2023-12-20T08:32:11;5.10;99.90
3564;DHT22;1796;52.388;13.096;2023-12-20T08:34:38;5.10;99.90
3564;DHT22;1796;52.388;13.096;2023-12-20T08:37:05;5.20;99.90
3564;DHT22;1796;52.388;13.096;2023-12-20T08:39:33;5.20;99.90
3564;DHT22;1796;52.388;13.096;2023-12-20T08:42:00;5.20;99.90
3564;DHT22;1796;52.388;13.096;2023-12-20T08:44:27;5.30;99.90
3564;DHT22;1796;52.388;13.096;2023-12-20T08:46:53;5.30;99.90
3564;DHT22;1796;52.388;13.096;2023-12-20T08:49:22;5.50;99.90
3564;DHT22;1796;52.388;13.096;2023-12-20T08:51:49;5.30;99.90
3564;DHT22;1796;52.388;13.096;2023-12-20T08:54:16;5.20;99.90
3564;DHT22;1796;52.388;13.096;2023-12-20T08:56:46;5.20;99.90
3564;DHT22;1796;52.388;13.096;2023-12-20T08:59:12;5.40;99.90
3564;DHT22;1796;52.388;13.096;2023-12-20T09:01:39;5.50;99.90
3564;DHT22;1796;52.388;13.096;2023-12-20T09:04:06;5.50;99.90
3564;DHT22;1796;52.388;13.096;2023-12-20T09:06:33;5.60;99.90
3564;DHT22;1796;52.388;13.096;2023-12-20T09:09:00;5.60;99.90
3564;DHT22;1796;52.388;13.096;2023-12-20T09:11:27;5.60;99.90
3564;DHT22;1796;52.388;13.096;2023-12-20T09:13:55;5.60;99.90
3564;DHT22;1796;52.388;13.096;2023-12-20T09:16:22;5.60;99.90
3564;DHT22;1796;52.388;13.096;2023-12-20T09:18:48;5.60;99.90
3564;DHT22;1796;52.388;13.096;2023-12-20T09:21:15;5.60;99.90
3564;DHT22;1796;52.388;13.096;2023-12-20T09:23:42;5.70;99.90
3564;DHT22;1796;52.388;13.096;2023-12-20T09:26:09;5.70;99.90
3564;DHT22;1796;52.388;13.096;2023-12-20T09:28:36;5.90;99.90
3564;DHT22;1796;52.388;13.096;2023-12-20T09:31:06;5.80;99.90
3564;DHT22;1796;52.388;13.096;2023-12-20T09:33:33;5.90;99.90
3564;DHT22;1796;52.388;13.096;2023-12-20T09:36:00;5.90;99.90
3564;DHT22;1796;52.388;13.096;2023-12-20T09:38:27;5.90;99.90
3564;DHT22;1796;52.388;13.096;2023-12-20T09:40:54;5.90;99.90
3564;DHT22;1796;52.388;13.096;2023-12-20T09:43:24;6.00;99.90
3564;DHT22;1796;52.388;13.096;2023-12-20T09:45:53;6.00;99.90
3564;DHT22;1796;52.388;13.096;2023-12-20T09:48:21;6.10;99.90
3564;DHT22;1796;52.388;13.096;2023-12-20T09:50:48;6.10;99.90
3564;DHT22;1796;52.388;13.096;2023-12-20T09:53:16;6.10;99.90
3564;DHT22;1796;52.388;13.096;2023-12-20T09:55:44;6.10;99.90
3564;DHT22;1796;52.388;13.096;2023-12-20T09:58:11;6.10;99.90
3564;DHT22;1796;52.388;13.096;2023-12-20T10:00:38;6.10;99.90
3564;DHT22;1796;52.388;13.096;2023-12-20T10:03:06;6.20;99.90
3564;DHT22;1796;52.388;13.096;2023-12-20T10:05:35;6.20;99.90
3564;DHT22;1796;52.388;13.096;2023-12-20T10:08:02;6.20;99.90
3564;DHT22;1796;52.388;13.096;2023-12-20T10:10:29;6.30;99.90
3564;DHT22;1796;52.388;13.096;2023-12-20T10:13:03;6.30;99.90
3564;DHT22;1796;52.388;13.096;2023-12-20T10:15:29;6.30;99.90
3564;DHT22;1796;52.388;13.096;2023-12-20T10:17:57;6.40;99.90
3564;DHT22;1796;52.388;13.096;2023-12-20T10:20:24;6.40;99.90
3564;DHT22;1796;52.388;13.096;2023-12-20T10:22:53;6.50;99.90
3564;DHT22;1796;52.388;13.096;2023-12-20T10:25:21;6.50;99.90
3564;DHT22;1796;52.388;13.096;2023-12-20T10:27:49;6.50;99.90
3564;DHT22;1796;52.388;13.096;2023-12-20T10:30:16;6.60;99.90
3564;DHT22;1796;52.388;13.096;2023-12-20T10:32:43;6.50;99.90
3564;DHT22;1796;52.388;13.096;2023-12-20T10:35:09;6.50;99.90
3564;DHT22;1796;52.388;13.096;2023-12-20T10:37:37;6.60;99.90
3564;DHT22;1796;52.388;13.096;2023-12-20T10:40:06;6.60;99.90
3564;DHT22;1796;52.388;13.096;2023-12-20T10:42:33;6.70;99.90
3564;DHT22;1796;52.388;13.096;2023-12-20T10:45:01;6.70;99.90
3564;DHT22;1796;52.388;13.096;2023-12-20T10:47:30;6.60;99.90
3564;DHT22;1796;52.388;13.096;2023-12-20T10:49:59;6.60;99.90
3564;DHT22;1796;52.388;13.096;2023-12-20T10:52:28;6.60;99.90
3564;DHT22;1796;52.388;13.096;2023-12-20T10:54:56;6.60;99.90
3564;DHT22;1796;52.388;13.096;2023-12-20T10:57:27;6.50;99.90
3564;DHT22;1796;52.388;13.096;2023-12-20T10:59:56;6.50;99.90
3564;DHT22;1796;52.388;13.096;2023-12-20T11:02:28;6.50;99.90
3564;DHT22;1796;52.388;13.096;2023-12-20T11:05:01;6.50;99.90
3564;DHT22;1796;52.388;13.096;2023-12-20T11:07:35;6.50;99.90
3564;DHT22;1796;52.388;13.096;2023-12-20T11:10:12;6.50;99.90
3564;DHT22;1796;52.388;13.096;2023-12-20T11:12:48;6.50;99.90
3564;DHT22;1796;52.388;13.096;2023-12-20T11:15:17;6.60;99.90
3564;DHT22;1796;52.388;13.096;2023-12-20T11:17:45;6.60;99.90
3564;DHT22;1796;52.388;13.096;2023-12-20T11:20:12;6.50;99.90
3564;DHT22;1796;52.388;13.096;2023-12-20T11:22:40;6.50;99.90
3564;DHT22;1796;52.388;13.096;2023-12-20T11:25:18;6.50;99.90
3564;DHT22;1796;52.388;13.096;2023-12-20T11:28:06;6.40;99.90
3564;DHT22;1796;52.388;13.096;2023-12-20T11:30:41;6.40;99.90
3564;DHT22;1796;52.388;13.096;2023-12-20T11:33:08;6.40;99.90
3564;DHT22;1796;52.388;13.096;2023-12-20T11:35:38;6.40;99.90
3564;DHT22;1796;52.388;13.096;2023-12-20T11:38:10;6.50;99.90
3564;DHT22;1796;52.388;13.096;2023-12-20T11:40:37;6.50;99.90
3564;DHT22;1796;52.388;13.096;2023-12-20T11:43:15;6.40;99.90
3564;DHT22;1796;52.388;13.096;2023-12-20T11:45:59;6.40;99.90
3564;DHT22;1796;52.388;13.096;2023-12-20T11:48:39;6.50;99.90
3564;DHT22;1796;52.388;13.096;2023-12-20T11:51:20;6.60;99.90
3564;DHT22;1796;52.388;13.096;2023-12-20T11:54:08;6.60;99.90
3564;DHT22;1796;52.388;13.096;2023-12-20T11:56:47;6.50;99.90
3564;DHT22;1796;52.388;13.096;2023-12-20T11:59:40;6.50;99.90
3564;DHT22;1796;52.388;13.096;2023-12-20T12:02:21;6.40;99.90
3564;DHT22;1796;52.388;13.096;2023-12-20T12:05:04;6.40;99.90
3564;DHT22;1796;52.388;13.096;2023-12-20T12:07:47;6.60;99.90
3564;DHT22;1796;52.388;13.096;2023-12-20T12:10:28;6.60;99.90
3564;DHT22;1796;52.388;13.096;2023-12-20T12:13:10;6.70;99.90
3564;DHT22;1796;52.388;13.096;2023-12-20T12:15:48;6.70;99.90
3564;DHT22;1796;52.388;13.096;2023-12-20T12:18:23;6.70;99.90
3564;DHT22;1796;52.388;13.096;2023-12-20T12:21:02;6.60;99.90
3564;DHT22;1796;52.388;13.096;2023-12-20T12:23:35;6.50;99.90
3564;DHT22;1796;52.388;13.096;2023-12-20T12:26:07;6.60;99.90
3564;DHT22;1796;52.388;13.096;2023-12-20T12:28:44;6.70;99.90
3564;DHT22;1796;52.388;13.096;2023-12-20T12:31:23;6.60;99.90
3564;DHT22;1796;52.388;13.096;2023-12-20T12:33:59;6.40;99.90
3564;DHT22;1796;52.388;13.096;2023-12-20T12:36:35;6.30;99.90
3564;DHT22;1796;52.388;13.096;2023-12-20T12:39:02;6.30;99.90
3564;DHT22;1796;52.388;13.096;2023-12-20T12:41:43;6.20;99.90
3564;DHT22;1796;52.388;13.096;2023-12-20T12:44:13;6.20;99.90
3564;DHT22;1796;52.388;13.096;2023-12-20T12:46:42;6.20;99.90
3564;DHT22;1796;52.388;13.096;2023-12-20T12:49:12;6.10;99.90
3564;DHT22;1796;52.388;13.096;2023-12-20T12:51:51;6.10;99.90
3564;DHT22;1796;52.388;13.096;2023-12-20T12:54:27;6.10;99.90
3564;DHT22;1796;52.388;13.096;2023-12-20T12:56:56;6.10;99.90
3564;DHT22;1796;52.388;13.096;2023-12-20T12:59:25;6.00;99.90
3564;DHT22;1796;52.388;13.096;2023-12-20T13:02:02;6.00;99.90
3564;DHT22;1796;52.388;13.096;2023-12-20T13:04:37;5.90;99.90
3564;DHT22;1796;52.388;13.096;2023-12-20T13:07:07;6.00;99.90
3564;DHT22;1796;52.388;13.096;2023-12-20T13:40:37;4.70;99.90
3564;DHT22;1796;52.388;13.096;2023-12-20T13:43:04;4.60;99.90
3564;DHT22;1796;52.388;13.096;2023-12-20T13:45:31;4.30;99.90
3564;DHT22;1796;52.388;13.096;2023-12-20T13:47:58;4.30;99.90
3564;DHT22;1796;52.388;13.096;2023-12-20T13:53:51;4.20;99.90
3564;DHT22;1796;52.388;13.096;2023-12-20T13:59:35;4.00;99.90
3564;DHT22;1796;52.388;13.096;2023-12-20T14:02:02;3.90;99.90
3564;DHT22;1796;52.388;13.096;2023-12-20T14:04:30;3.80;99.90
3564;DHT22;1796;52.388;13.096;2023-12-20T14:07:00;3.90;99.90
3564;DHT22;1796;52.388;13.096;2023-12-20T14:09:34;3.90;99.90
3564;DHT22;1796;52.388;13.096;2023-12-20T14:12:02;3.90;99.90
3564;DHT22;1796;52.388;13.096;2023-12-20T14:14:29;3.90;99.90
3564;DHT22;1796;52.388;13.096;2023-12-20T14:16:56;4.00;99.90
3564;DHT22;1796;52.388;13.096;2023-12-20T14:19:25;4.00;99.90
3564;DHT22;1796;52.388;13.096;2023-12-20T14:21:52;4.00;99.90
3564;DHT22;1796;52.388;13.096;2023-12-20T14:24:18;4.00;99.90
3564;DHT22;1796;52.388;13.096;2023-12-20T14:26:47;4.10;99.90
3564;DHT22;1796;52.388;13.096;2023-12-20T14:29:14;4.10;99.90
3564;DHT22;1796;52.388;13.096;2023-12-20T14:31:41;4.10;99.90
3564;DHT22;1796;52.388;13.096;2023-12-20T14:34:07;4.30;99.90
3564;DHT22;1796;52.388;13.096;2023-12-20T14:36:34;4.30;99.90
3564;DHT22;1796;52.388;13.096;2023-12-20T14:39:01;4.30;99.90
3564;DHT22;1796;52.388;13.096;2023-12-20T14:41:28;4.40;99.90
3564;DHT22;1796;52.388;13.096;2023-12-20T14:43:57;4.40;99.90
3564;DHT22;1796;52.388;13.096;2023-12-20T14:46:25;4.50;99.90
3564;DHT22;1796;52.388;13.096;2023-12-20T14:48:52;4.50;99.90
3564;DHT22;1796;52.388;13.096;2023-12-20T14:51:19;4.50;99.90
3564;DHT22;1796;52.388;13.096;2023-12-20T14:53:46;4.40;99.90
3564;DHT22;1796;52.388;13.096;2023-12-20T14:56:13;4.30;99.90
3564;DHT22;1796;52.388;13.096;2023-12-20T14:58:40;4.30;99.90
3564;DHT22;1796;52.388;13.096;2023-12-20T15:01:08;4.10;99.90
3564;DHT22;1796;52.388;13.096;2023-12-20T15:03:35;4.20;99.90
3564;DHT22;1796;52.388;13.096;2023-12-20T15:06:02;4.20;99.90
3564;DHT22;1796;52.388;13.096;2023-12-20T15:08:29;4.20;99.90
3564;DHT22;1796;52.388;13.096;2023-12-20T15:10:56;4.10;99.90
3564;DHT22;1796;52.388;13.096;2023-12-20T15:13:23;4.10;99.90
3564;DHT22;1796;52.388;13.096;2023-12-20T15:15:49;4.10;99.90
3564;DHT22;1796;52.388;13.096;2023-12-20T15:18:18;4.10;99.90
3564;DHT22;1796;52.388;13.096;2023-12-20T15:20:45;4.10;99.90
3564;DHT22;1796;52.388;13.096;2023-12-20T15:23:13;4.10;99.90
3564;DHT22;1796;52.388;13.096;2023-12-20T15:25:40;4.10;99.90
3564;DHT22;1796;52.388;13.096;2023-12-20T15:28:07;4.10;99.90
3564;DHT22;1796;52.388;13.096;2023-12-20T15:30:34;4.00;99.90
3564;DHT22;1796;52.388;13.096;2023-12-20T15:33:01;4.00;99.90
3564;DHT22;1796;52.388;13.096;2023-12-20T15:35:30;4.00;99.90
3564;DHT22;1796;52.388;13.096;2023-12-20T15:37:57;4.00;99.90
3564;DHT22;1796;52.388;13.096;2023-12-20T15:40:25;4.00;99.90
3564;DHT22;1796;52.388;13.096;2023-12-20T15:42:51;4.00;99.90
3564;DHT22;1796;52.388;13.096;2023-12-20T15:45:19;4.00;99.90
3564;DHT22;1796;52.388;13.096;2023-12-20T15:47:46;4.00;99.90
3564;DHT22;1796;52.388;13.096;2023-12-20T15:50:13;4.00;99.90
3564;DHT22;1796;52.388;13.096;2023-12-20T15:52:41;4.00;99.90
3564;DHT22;1796;52.388;13.096;2023-12-20T15:55:09;4.00;99.90
3564;DHT22;1796;52.388;13.096;2023-12-20T15:57:36;4.00;99.90
3564;DHT22;1796;52.388;13.096;2023-12-20T16:00:04;4.00;99.90
3564;DHT22;1796;52.388;13.096;2023-12-20T16:02:31;4.00;99.90
3564;DHT22;1796;52.388;13.096;2023-12-20T16:04:58;4.10;99.90
3564;DHT22;1796;52.388;13.096;2023-12-20T16:07:25;4.20;99.90
3564;DHT22;1796;52.388;13.096;2023-12-20T16:09:53;4.20;99.90
3564;DHT22;1796;52.388;13.096;2023-12-20T16:12:21;4.30;99.90
3564;DHT22;1796;52.388;13.096;2023-12-20T16:14:56;4.30;99.90
3564;DHT22;1796;52.388;13.096;2023-12-20T16:17:23;4.30;99.90
3564;DHT22;1796;52.388;13.096;2023-12-20T16:19:50;4.30;99.90
3564;DHT22;1796;52.388;13.096;2023-12-20T16:22:17;4.30;99.90
3564;DHT22;1796;52.388;13.096;2023-12-20T16:24:45;4.30;99.90
3564;DHT22;1796;52.388;13.096;2023-12-20T16:27:14;4.40;99.90
3564;DHT22;1796;52.388;13.096;2023-12-20T16:29:47;4.30;99.90
3564;DHT22;1796;52.388;13.096;2023-12-20T16:32:20;4.30;99.90
3564;DHT22;1796;52.388;13.096;2023-12-20T16:34:47;4.20;99.90
3564;DHT22;1796;52.388;13.096;2023-12-20T16:37:20;4.20;99.90
3564;DHT22;1796;52.388;13.096;2023-12-20T16:39:47;4.20;99.90
3564;DHT22;1796;52.388;13.096;2023-12-20T16:42:17;4.20;99.90
3564;DHT22;1796;52.388;13.096;2023-12-20T16:44:44;4.10;99.90
3564;DHT22;1796;52.388;13.096;2023-12-20T16:47:11;4.20;99.90
3564;DHT22;1796;52.388;13.096;2023-12-20T16:49:38;4.20;99.90